createdAt,value
2019-02-23T00:02:17.581Z,-3.83
2019-02-23T00:04:46.087Z,-3.63
2019-02-23T00:07:14.682Z,-3.80
2019-02-23T00:09:43.183Z,-3.85
2019-02-23T00:12:12.011Z,-3.76
2019-02-23T00:14:40.500Z,-3.78
2019-02-23T00:17:09.022Z,-3.67
2019-02-23T00:19:37.518Z,-3.61
2019-02-23T00:22:06.048Z,-3.68
2019-02-23T00:24:34.550Z,-3.79
2019-02-23T00:27:03.073Z,-3.94
2019-02-23T00:29:31.578Z,-3.94
2019-02-23T00:32:00.112Z,-3.97
2019-02-23T00:34:28.597Z,-3.88
2019-02-23T00:36:57.134Z,-3.97
2019-02-23T00:39:25.616Z,-3.88
2019-02-23T00:41:54.132Z,-3.97
2019-02-23T00:44:22.627Z,-4.02
2019-02-23T00:46:51.119Z,-4.12
2019-02-23T00:49:19.626Z,-4.17
2019-02-23T00:51:48.118Z,-4.20
2019-02-23T00:54:16.634Z,-4.00
2019-02-23T00:56:45.132Z,-3.99
2019-02-23T00:59:13.653Z,-4.05
2019-02-23T01:01:42.140Z,-4.15
2019-02-23T01:04:10.653Z,-4.24
2019-02-23T01:06:39.142Z,-4.34
2019-02-23T01:09:08.027Z,-4.27
2019-02-23T01:11:36.588Z,-4.44
2019-02-23T01:14:05.102Z,-4.68
2019-02-23T01:16:33.594Z,-4.73
2019-02-23T01:19:02.117Z,-4.45
2019-02-23T01:21:30.610Z,-4.47
2019-02-23T01:23:59.132Z,-4.52
2019-02-23T01:26:27.624Z,-4.65
2019-02-23T01:28:56.298Z,-4.60
2019-02-23T01:31:24.991Z,-4.63
2019-02-23T01:33:53.581Z,-4.62
2019-02-23T01:36:22.271Z,-4.55
2019-02-23T01:38:50.855Z,-4.70
2019-02-23T01:41:19.346Z,-4.76
2019-02-23T01:43:47.862Z,-4.55
2019-02-23T01:46:16.354Z,-4.47
2019-02-23T01:48:44.879Z,-4.48
2019-02-23T01:51:13.371Z,-4.66
2019-02-23T01:53:41.987Z,-4.63
2019-02-23T01:56:10.472Z,-4.45
2019-02-23T01:58:38.985Z,-4.60
2019-02-23T02:01:07.543Z,-4.69
2019-02-23T02:03:36.064Z,-4.69
2019-02-23T02:06:04.741Z,-4.69
2019-02-23T02:08:33.218Z,-4.43
2019-02-23T02:11:01.779Z,-4.39
2019-02-23T02:13:30.302Z,-4.35
2019-02-23T02:15:58.794Z,-4.36
2019-02-23T02:18:27.308Z,-4.34
2019-02-23T02:20:55.802Z,-4.36
2019-02-23T02:23:24.322Z,-4.41
2019-02-23T02:25:52.814Z,-4.33
2019-02-23T02:28:21.324Z,-4.25
2019-02-23T02:30:49.819Z,-4.47
2019-02-23T02:33:18.337Z,-4.60
2019-02-23T02:35:46.828Z,-4.67
2019-02-23T02:38:15.351Z,-4.69
2019-02-23T02:40:43.841Z,-4.85
2019-02-23T02:43:12.361Z,-4.93
2019-02-23T02:45:40.852Z,-4.78
2019-02-23T02:48:09.366Z,-4.69
2019-02-23T02:50:37.862Z,-4.85
2019-02-23T02:53:06.389Z,-5.07
2019-02-23T02:55:34.972Z,-5.06
2019-02-23T02:58:03.483Z,-5.05
2019-02-23T03:00:31.978Z,-4.85
2019-02-23T03:03:00.502Z,-4.66
2019-02-23T03:05:28.997Z,-4.54
2019-02-23T03:07:57.489Z,-4.64
2019-02-23T03:10:26.002Z,-4.52
2019-02-23T03:12:54.497Z,-4.53
2019-02-23T03:15:23.017Z,-4.61
2019-02-23T03:17:51.509Z,-4.63
2019-02-23T03:20:20.021Z,-4.52
2019-02-23T03:22:48.552Z,-4.46
2019-02-23T03:25:17.063Z,-4.51
2019-02-23T03:27:45.564Z,-4.54
2019-02-23T03:30:14.081Z,-4.35
2019-02-23T03:32:42.564Z,-4.27
2019-02-23T03:35:11.155Z,-4.07
2019-02-23T03:37:39.652Z,-3.99
2019-02-23T03:40:09.102Z,-4.03
2019-02-23T03:42:37.667Z,-3.69
2019-02-23T03:45:06.644Z,-3.79
2019-02-23T03:47:35.135Z,-4.07
2019-02-23T03:50:04.486Z,-4.29
2019-02-23T03:52:32.974Z,-4.35
2019-02-23T03:55:01.558Z,-4.40
2019-02-23T03:57:30.051Z,-4.38
2019-02-23T03:59:58.639Z,-4.44
2019-02-23T04:02:27.129Z,-4.47
2019-02-23T04:04:57.286Z,-4.40
2019-02-23T04:07:25.782Z,-4.40
2019-02-23T04:09:54.298Z,-4.39
2019-02-23T04:12:22.790Z,-4.33
2019-02-23T04:14:51.307Z,-4.31
2019-02-23T04:17:19.802Z,-4.37
2019-02-23T04:19:48.316Z,-4.36
2019-02-23T04:22:16.804Z,-4.65
2019-02-23T04:24:45.330Z,-4.50
2019-02-23T04:27:13.828Z,-4.33
2019-02-23T04:29:42.351Z,-4.21
2019-02-23T04:32:10.843Z,-4.31
2019-02-23T04:34:39.359Z,-4.45
2019-02-23T04:37:07.925Z,-4.31
2019-02-23T04:39:36.448Z,-4.32
2019-02-23T04:42:04.938Z,-4.15
2019-02-23T04:44:33.460Z,-4.31
2019-02-23T04:47:01.950Z,-4.58
2019-02-23T04:49:30.468Z,-4.69
2019-02-23T04:51:58.958Z,-4.88
2019-02-23T04:54:27.481Z,-4.50
2019-02-23T04:56:55.970Z,-4.58
2019-02-23T04:59:24.499Z,-4.78
2019-02-23T05:01:52.977Z,-4.71
2019-02-23T05:04:21.561Z,-4.59
2019-02-23T05:06:50.066Z,-4.47
2019-02-23T05:09:18.566Z,-4.44
2019-02-23T05:11:47.062Z,-4.36
2019-02-23T05:14:15.589Z,-4.36
2019-02-23T05:16:44.080Z,-4.40
2019-02-23T05:19:12.598Z,-4.28
2019-02-23T05:21:41.098Z,-4.26
2019-02-23T05:24:09.622Z,-4.08
2019-02-23T05:26:38.180Z,-4.12
2019-02-23T05:29:06.699Z,-3.95
2019-02-23T05:31:35.193Z,-3.98
2019-02-23T05:34:03.677Z,-4.23
2019-02-23T05:36:32.201Z,-4.14
2019-02-23T05:39:00.719Z,-3.99
2019-02-23T05:41:29.218Z,-4.08
2019-02-23T05:43:57.776Z,-3.91
2019-02-23T05:46:26.291Z,-3.93
2019-02-23T05:48:54.796Z,-3.85
2019-02-23T05:51:23.302Z,-3.92
2019-02-23T05:53:51.788Z,-4.04
2019-02-23T05:56:20.306Z,-3.67
2019-02-23T05:58:48.793Z,-3.43
2019-02-23T06:01:17.310Z,-3.78
2019-02-23T06:03:45.820Z,-3.75
2019-02-23T06:06:14.337Z,-3.72
2019-02-23T06:08:42.821Z,-3.72
2019-02-23T06:11:11.334Z,-3.84
2019-02-23T06:13:39.830Z,-3.44
2019-02-23T06:16:08.346Z,-3.37
2019-02-23T06:18:36.846Z,-3.71
2019-02-23T06:21:05.367Z,-3.68
2019-02-23T06:23:34.028Z,-3.74
2019-02-23T06:26:02.544Z,-3.55
2019-02-23T06:28:31.103Z,-3.65
2019-02-23T06:30:59.611Z,-3.58
2019-02-23T06:33:28.098Z,-3.51
2019-02-23T06:35:56.602Z,-3.48
2019-02-23T06:38:25.097Z,-3.45
2019-02-23T06:40:53.610Z,-3.25
2019-02-23T06:43:22.108Z,-3.34
2019-02-23T06:45:50.615Z,-3.31
2019-02-23T06:48:19.964Z,-3.51
2019-02-23T06:50:48.690Z,-3.34
2019-02-23T06:53:17.172Z,-3.32
2019-02-23T06:55:45.686Z,-3.35
2019-02-23T06:58:14.174Z,-3.18
2019-02-23T07:00:42.692Z,-3.11
2019-02-23T07:03:11.178Z,-3.14
2019-02-23T07:05:39.699Z,-3.30
2019-02-23T07:08:08.190Z,-3.25
2019-02-23T07:10:36.701Z,-3.04
2019-02-23T07:13:05.193Z,-3.13
2019-02-23T07:15:33.705Z,-2.96
2019-02-23T07:18:02.184Z,-2.96
2019-02-23T07:20:30.690Z,-2.92
2019-02-23T07:22:59.181Z,-2.94
2019-02-23T07:25:27.689Z,-2.97
2019-02-23T07:27:56.178Z,-2.83
2019-02-23T07:30:24.682Z,-2.80
2019-02-23T07:32:53.164Z,-2.84
2019-02-23T07:35:21.682Z,-2.79
2019-02-23T07:37:50.178Z,-2.98
2019-02-23T07:40:18.683Z,-2.80
2019-02-23T07:42:47.170Z,-2.87
2019-02-23T07:45:16.453Z,-2.78
2019-02-23T07:47:44.939Z,-2.63
2019-02-23T07:50:15.402Z,-2.51
2019-02-23T07:52:43.892Z,-2.41
2019-02-23T07:55:12.376Z,-2.43
2019-02-23T07:57:40.884Z,-2.26
2019-02-23T08:00:13.901Z,-2.26
2019-02-23T08:02:42.481Z,-2.18
2019-02-23T08:05:11.180Z,-2.25
2019-02-23T08:07:40.103Z,-2.27
2019-02-23T08:10:10.794Z,-2.15
2019-02-23T08:12:39.370Z,-2.17
2019-02-23T08:15:09.995Z,-2.03
2019-02-23T08:17:38.812Z,-2.01
2019-02-23T08:20:11.746Z,-1.94
2019-02-23T08:22:40.265Z,-1.90
2019-02-23T08:25:11.163Z,-1.70
2019-02-23T08:27:39.670Z,-1.80
2019-02-23T08:30:11.551Z,-1.36
2019-02-23T08:32:40.051Z,-1.29
2019-02-23T08:35:08.977Z,-1.34
2019-02-23T08:37:37.497Z,-1.60
2019-02-23T08:40:11.653Z,-1.73
2019-02-23T08:42:41.122Z,-1.55
2019-02-23T08:45:10.465Z,-1.21
2019-02-23T08:47:38.972Z,-0.78
2019-02-23T08:50:13.135Z,-0.28
2019-02-23T08:52:49.074Z,0.30
2019-02-23T08:57:47.691Z,1.04
2019-02-23T09:00:19.642Z,0.57
2019-02-23T09:02:50.453Z,0.10
2019-02-23T09:05:18.930Z,-0.03
2019-02-23T09:07:47.438Z,0.20
2019-02-23T09:10:16.090Z,0.89
2019-02-23T09:12:44.933Z,0.93
2019-02-23T09:15:16.592Z,1.09
2019-02-23T09:40:33.533Z,0.23
2019-02-23T09:58:16.957Z,0.52
2019-02-23T10:09:10.162Z,0.91
2019-02-23T10:17:23.960Z,0.78
2019-02-23T10:19:55.300Z,1.30
2019-02-23T10:22:23.953Z,1.32
2019-02-23T11:00:04.683Z,1.51
2019-02-23T11:05:34.562Z,1.73
2019-02-23T11:20:17.082Z,2.58
2019-02-23T11:22:47.731Z,2.54
2019-02-23T11:25:16.395Z,3.27
2019-02-23T11:27:50.140Z,3.01
2019-02-23T11:30:18.712Z,3.67
2019-02-23T11:32:47.341Z,3.67
2019-02-23T11:35:17.607Z,4.30
2019-02-23T11:37:46.389Z,4.30
2019-02-23T11:40:16.010Z,3.88
2019-02-23T11:42:44.520Z,3.69
2019-02-23T11:45:13.155Z,3.54
2019-02-23T11:47:41.744Z,3.54
2019-02-23T11:50:12.641Z,4.30
2019-02-23T11:52:41.494Z,5.39
2019-02-23T11:55:10.212Z,5.62
2019-02-23T11:57:38.720Z,5.55
2019-02-23T12:00:12.422Z,5.71
2019-02-23T12:02:51.731Z,6.28
2019-02-23T12:05:11.626Z,6.89
2019-02-23T12:07:46.643Z,7.54
2019-02-23T12:10:16.190Z,7.55
2019-02-23T12:12:44.707Z,7.13
2019-02-23T12:15:13.275Z,7.21
2019-02-23T12:17:41.795Z,7.12
2019-02-23T12:20:11.610Z,6.49
2019-02-23T12:25:23.659Z,5.49
2019-02-23T12:27:53.918Z,6.01
2019-02-23T12:30:22.489Z,5.72
2019-02-23T12:32:51.035Z,4.72
2019-02-23T12:35:19.649Z,6.54
2019-02-23T12:37:48.443Z,7.44
2019-02-23T12:40:17.194Z,8.05
2019-02-23T12:42:45.745Z,8.62
2019-02-23T12:45:16.240Z,8.03
2019-02-23T12:47:46.731Z,8.76
2019-02-23T12:50:15.280Z,8.12
2019-02-23T12:52:43.929Z,9.39
2019-02-23T12:55:12.720Z,10.49
2019-02-23T12:57:50.648Z,11.00
2019-02-23T13:00:19.652Z,10.86
2019-02-23T13:02:48.376Z,8.92
2019-02-23T13:05:17.598Z,8.16
2019-02-23T13:07:46.310Z,7.49
2019-02-23T13:10:15.041Z,8.55
2019-02-23T13:12:53.027Z,8.46
2019-02-23T13:15:36.403Z,9.76
2019-02-23T13:18:25.794Z,8.81
2019-02-23T13:21:12.551Z,9.45
2019-02-23T13:23:50.114Z,10.08
2019-02-23T13:26:27.562Z,10.67
2019-02-23T13:29:21.607Z,10.35
2019-02-23T13:31:59.128Z,9.87
2019-02-23T13:34:36.389Z,8.54
2019-02-23T13:37:23.172Z,8.50
2019-02-23T13:40:00.645Z,8.42
2019-02-23T13:42:33.112Z,8.16
2019-02-23T13:45:13.848Z,6.98
2019-02-23T13:48:21.235Z,7.32
2019-02-23T13:50:57.581Z,7.71
2019-02-23T13:53:55.925Z,7.92
2019-02-23T13:56:33.289Z,7.76
2019-02-23T13:59:20.038Z,7.71
2019-02-23T14:02:00.669Z,7.04
2019-02-23T14:04:47.117Z,6.52
2019-02-23T14:07:24.290Z,6.19
2019-02-23T14:10:07.323Z,5.97
2019-02-23T14:12:54.167Z,6.07
2019-02-23T14:15:57.542Z,5.66
2019-02-23T14:18:51.585Z,5.81
2019-02-23T14:21:41.334Z,5.87
2019-02-23T14:24:30.902Z,5.98
2019-02-23T14:27:14.090Z,5.34
2019-02-23T14:30:09.931Z,5.92
2019-02-23T14:32:47.383Z,6.27
2019-02-23T14:35:30.756Z,6.90
2019-02-23T14:38:24.735Z,7.03
2019-02-23T14:41:05.294Z,6.97
2019-02-23T14:43:51.123Z,6.38
2019-02-23T14:46:34.413Z,5.93
2019-02-23T14:49:06.005Z,5.77
2019-02-23T14:51:40.409Z,5.84
2019-02-23T14:54:31.274Z,5.62
2019-02-23T14:57:14.608Z,5.36
2019-02-23T14:59:46.167Z,5.21
2019-02-23T15:02:40.415Z,4.96
2019-02-23T15:05:31.654Z,5.24
2019-02-23T15:08:22.630Z,4.94
2019-02-23T15:11:13.638Z,4.90
2019-02-23T15:14:03.183Z,5.19
2019-02-23T15:16:59.440Z,5.16
2019-02-23T15:19:48.846Z,4.86
2019-02-23T15:22:20.376Z,4.66
2019-02-23T15:25:12.746Z,4.86
2019-02-23T15:27:53.895Z,5.06
2019-02-23T15:30:25.454Z,5.02
2019-02-23T15:33:05.798Z,4.94
2019-02-23T15:35:37.443Z,4.92
2019-02-23T15:38:26.932Z,4.87
2019-02-23T15:41:27.244Z,4.81
2019-02-23T15:44:01.553Z,4.57
2019-02-23T15:46:45.079Z,4.21
2019-02-23T15:49:28.640Z,4.09
2019-02-23T15:51:57.221Z,4.02
2019-02-23T15:54:25.807Z,3.92
2019-02-23T15:56:54.365Z,3.49
2019-02-23T15:59:22.871Z,3.43
2019-02-23T16:01:51.535Z,3.28
2019-02-23T16:04:20.151Z,3.16
2019-02-23T16:06:48.750Z,3.00
2019-02-23T16:09:17.240Z,2.80
2019-02-23T16:11:45.809Z,2.78
2019-02-23T16:14:14.319Z,2.44
2019-02-23T16:16:42.884Z,2.44
2019-02-23T16:19:11.326Z,2.41
2019-02-23T16:21:40.112Z,2.17
2019-02-23T16:24:08.602Z,1.90
2019-02-23T16:26:37.119Z,1.85
2019-02-23T16:29:05.602Z,1.48
2019-02-23T16:31:34.102Z,1.17
2019-02-23T16:34:02.642Z,1.10
2019-02-23T16:36:31.172Z,1.15
2019-02-23T16:38:59.666Z,1.02
2019-02-23T16:41:28.179Z,0.94
2019-02-23T16:43:56.670Z,0.72
2019-02-23T16:46:25.184Z,0.38
2019-02-23T16:48:53.736Z,0.23
2019-02-23T16:51:22.236Z,0.18
2019-02-23T16:53:50.719Z,0.29
2019-02-23T16:56:19.230Z,0.41
2019-02-23T16:58:47.716Z,0.20
2019-02-23T17:01:16.233Z,0.17
2019-02-23T17:03:44.794Z,0.17
2019-02-23T17:06:13.314Z,0.05
2019-02-23T17:08:41.811Z,-0.06
2019-02-23T17:11:12.410Z,-0.23
2019-02-23T17:13:42.682Z,-0.22
2019-02-23T17:16:11.655Z,-0.23
2019-02-23T17:18:40.341Z,-0.16
2019-02-23T17:21:08.948Z,-0.16
2019-02-23T17:23:37.439Z,-0.19
2019-02-23T17:26:05.961Z,-0.20
2019-02-23T17:28:34.465Z,-0.25
2019-02-23T17:31:02.986Z,-0.37
2019-02-23T17:33:31.482Z,-0.28
2019-02-23T17:35:59.999Z,-0.34
2019-02-23T17:38:28.488Z,-0.50
2019-02-23T17:40:57.006Z,-0.51
2019-02-23T17:43:25.554Z,-0.56
2019-02-23T17:45:54.156Z,-0.45
2019-02-23T17:48:22.645Z,-0.43
2019-02-23T17:50:51.143Z,-0.52
2019-02-23T17:53:19.667Z,-0.54
2019-02-23T17:55:48.152Z,-0.47
2019-02-23T17:58:16.681Z,-0.26
2019-02-23T18:00:45.167Z,-0.44
2019-02-23T18:03:13.695Z,-0.63
2019-02-23T18:05:42.178Z,-0.68
2019-02-23T18:08:10.694Z,-0.80
2019-02-23T18:10:39.193Z,-0.74
2019-02-23T18:13:07.718Z,-0.67
2019-02-23T18:15:36.211Z,-0.90
2019-02-23T18:18:04.744Z,-0.74
2019-02-23T18:20:33.244Z,-0.68
2019-02-23T18:23:01.825Z,-0.70
2019-02-23T18:25:30.317Z,-0.78
2019-02-23T18:27:58.845Z,-0.74
2019-02-23T18:30:27.349Z,-0.69
2019-02-23T18:32:55.869Z,-0.79
2019-02-23T18:35:24.363Z,-0.87
2019-02-23T18:37:52.893Z,-0.66
2019-02-23T18:40:21.397Z,-0.71
2019-02-23T18:42:49.932Z,-0.64
2019-02-23T18:45:18.440Z,-0.66
2019-02-23T18:47:46.970Z,-0.66
2019-02-23T18:50:15.484Z,-0.59
2019-02-23T18:52:44.011Z,-0.61
2019-02-23T18:55:12.517Z,-0.40
2019-02-23T18:57:41.030Z,-0.51
2019-02-23T19:00:12.170Z,-0.43
2019-02-23T19:02:40.696Z,-0.47
2019-02-23T19:05:11.794Z,-0.46
2019-02-23T19:07:40.397Z,-0.56
2019-02-23T19:10:11.731Z,-0.52
2019-02-23T19:12:40.268Z,-0.54
2019-02-23T19:15:11.411Z,-0.51
2019-02-23T19:17:40.039Z,-0.45
2019-02-23T19:20:11.171Z,-0.48
2019-02-23T19:22:39.706Z,-0.63
2019-02-23T19:25:10.745Z,-0.62
2019-02-23T19:27:39.280Z,-0.61
2019-02-23T19:30:10.721Z,-1.07
2019-02-23T19:32:39.276Z,-0.82
2019-02-23T19:35:09.379Z,-0.70
2019-02-23T19:37:37.906Z,-0.87
2019-02-23T19:40:10.744Z,-0.87
2019-02-23T19:42:39.327Z,-0.83
2019-02-23T19:45:12.379Z,-0.88
2019-02-23T19:47:42.293Z,-1.16
2019-02-23T19:50:14.029Z,-1.10
2019-02-23T19:52:42.635Z,-1.22
2019-02-23T19:55:14.669Z,-1.22
2019-02-23T19:57:43.199Z,-1.17
2019-02-23T20:00:11.774Z,-1.24
2019-02-23T20:02:40.302Z,-1.21
2019-02-23T20:05:10.535Z,-1.21
2019-02-23T20:07:39.062Z,-1.23
2019-02-23T20:10:09.912Z,-1.16
2019-02-23T20:12:38.328Z,-1.19
2019-02-23T20:15:09.060Z,-1.28
2019-02-23T20:17:37.581Z,-1.25
2019-02-23T20:20:07.124Z,-1.33
2019-02-23T20:22:35.636Z,-1.39
2019-02-23T20:25:04.767Z,-1.24
2019-02-23T20:27:33.286Z,-1.23
2019-02-23T20:30:01.775Z,-1.10
2019-02-23T20:32:30.911Z,-1.18
2019-02-23T20:34:59.403Z,-1.44
2019-02-23T20:37:27.925Z,-1.40
2019-02-23T20:39:56.420Z,-1.36
2019-02-23T20:42:25.007Z,-1.40
2019-02-23T20:44:53.545Z,-1.50
2019-02-23T20:47:22.025Z,-1.42
2019-02-23T20:49:50.602Z,-1.49
2019-02-23T20:52:19.214Z,-1.56
2019-02-23T20:54:47.709Z,-1.50
2019-02-23T20:57:18.755Z,-1.43
2019-02-23T20:59:48.082Z,-1.49
2019-02-23T21:02:16.714Z,-1.63
2019-02-23T21:04:45.234Z,-1.83
2019-02-23T21:07:13.734Z,-1.55
2019-02-23T21:09:43.145Z,-1.61
2019-02-23T21:12:11.637Z,-1.63
2019-02-23T21:14:40.167Z,-1.80
2019-02-23T21:17:08.655Z,-1.87
2019-02-23T21:19:37.260Z,-1.93
2019-02-23T21:22:05.715Z,-2.05
2019-02-23T21:24:34.238Z,-2.12
2019-02-23T21:27:02.855Z,-2.06
2019-02-23T21:29:31.385Z,-1.83
2019-02-23T21:31:59.898Z,-1.72
2019-02-23T21:34:28.430Z,-1.60
2019-02-23T21:36:56.935Z,-1.19
2019-02-23T21:39:25.456Z,-1.09
2019-02-23T21:41:53.949Z,-1.00
2019-02-23T21:44:22.480Z,-0.86
2019-02-23T21:46:51.127Z,-0.85
2019-02-23T21:49:19.757Z,-0.76
2019-02-23T21:51:48.272Z,-0.88
2019-02-23T21:54:16.801Z,-0.80
2019-02-23T21:56:45.293Z,-0.90
2019-02-23T21:59:13.885Z,-0.79
2019-02-23T22:01:42.387Z,-0.83
2019-02-23T22:04:10.918Z,-0.78
2019-02-23T22:06:39.586Z,-0.76
2019-02-23T22:09:08.172Z,-0.78
2019-02-23T22:11:36.704Z,-0.81
2019-02-23T22:14:06.501Z,-0.80
2019-02-23T22:16:34.989Z,-0.83
2019-02-23T22:19:03.602Z,-0.83
2019-02-23T22:21:32.081Z,-0.69
2019-02-23T22:24:00.587Z,-0.76
2019-02-23T22:26:29.097Z,-0.58
2019-02-23T22:28:57.621Z,-0.66
2019-02-23T22:31:26.099Z,-0.64
2019-02-23T22:33:54.613Z,-0.57
2019-02-23T22:36:23.137Z,-0.69
2019-02-23T22:38:51.656Z,-0.53
2019-02-23T22:41:20.147Z,-0.76
2019-02-23T22:43:48.711Z,-0.85
2019-02-23T22:46:17.207Z,-0.60
2019-02-23T22:48:45.791Z,-0.79
2019-02-23T22:51:14.280Z,-0.60
2019-02-23T22:53:42.800Z,-0.67
2019-02-23T22:56:11.287Z,-0.76
2019-02-23T22:58:39.803Z,-0.78
2019-02-23T23:01:08.736Z,-0.78
2019-02-23T23:03:37.319Z,-0.80
2019-02-23T23:06:05.814Z,-0.82
2019-02-23T23:08:34.332Z,-1.04
2019-02-23T23:11:02.826Z,-1.11
2019-02-23T23:13:31.336Z,-0.96
2019-02-23T23:15:59.833Z,-0.97
2019-02-23T23:18:28.345Z,-0.78
2019-02-23T23:20:56.904Z,-0.89
2019-02-23T23:23:25.404Z,-0.82
2019-02-23T23:25:53.920Z,-0.87
2019-02-23T23:28:22.502Z,-0.79
2019-02-23T23:30:51.004Z,-0.75
2019-02-23T23:33:19.499Z,-0.81
2019-02-23T23:35:48.030Z,-0.86
2019-02-23T23:38:16.527Z,-0.62
2019-02-23T23:40:45.047Z,-0.74
2019-02-23T23:43:13.527Z,-0.72
2019-02-23T23:45:42.053Z,-0.82
2019-02-23T23:48:10.535Z,-0.91
2019-02-23T23:50:39.074Z,-0.97
2019-02-23T23:53:07.568Z,-0.83
2019-02-23T23:55:36.248Z,-0.82
2019-02-23T23:58:04.737Z,-0.74
